Time;durP1;ratioP1;P1;durP2;ratioP2;P2;SDS_P1;SDS_P2;PMS_P1;PMS_P2;Temp;Humidity;BMP_temperature;BMP_pressure;BME280_temperature;BME280_humidity;BME280_pressure;Samples;Min_cycle;Max_cycle;Signal;HPM_P1;HPM_P2
2023/10/20 00:00:06;;;;;;;20.50;17.10;;;;;;;;;;5114550;28;20923;-61
2023/10/20 00:02:33;;;;;;;18.67;16.50;;;;;;;;;;5114634;28;20499;-61
2023/10/20 00:05:00;;;;;;;18.80;16.80;;;;;;;;;;5114436;28;20488;-61
2023/10/20 00:07:27;;;;;;;21.80;17.20;;;;;;;;;;5114439;28;20442;-61
2023/10/20 00:09:55;;;;;;;19.53;17.43;;;;;;;;;;5114838;28;20820;-61
2023/10/20 00:12:22;;;;;;;19.53;17.43;;;;;;;;;;5114469;28;20448;-61
2023/10/20 00:14:49;;;;;;;19.67;17.63;;;;;;;;;;5114361;28;20450;-61
2023/10/20 00:17:16;;;;;;;20.27;16.70;;;;;;;;;;5114551;28;20446;-61
2023/10/20 00:19:43;;;;;;;22.10;19.20;;;;;;;;;;5114228;28;20533;-61
2023/10/20 00:22:10;;;;;;;20.23;17.53;;;;;;;;;;5114110;28;20536;-61
2023/10/20 00:24:37;;;;;;;21.33;17.73;;;;;;;;;;5114214;28;20477;-61
2023/10/20 00:27:06;;;;;;;20.03;16.40;;;;;;;;;;5114428;28;20445;-61
2023/10/20 00:29:32;;;;;;;20.07;17.40;;;;;;;;;;5113898;28;20445;-61
2023/10/20 00:31:59;;;;;;;21.80;17.80;;;;;;;;;;5113992;28;20524;-61
2023/10/20 00:34:26;;;;;;;25.20;18.17;;;;;;;;;;5113949;28;20536;-61
2023/10/20 00:36:53;;;;;;;20.97;17.57;;;;;;;;;;5113731;28;20941;-61
2023/10/20 00:39:20;;;;;;;21.10;16.93;;;;;;;;;;5114032;28;20883;-61
2023/10/20 00:41:47;;;;;;;21.10;16.97;;;;;;;;;;5113906;28;20530;-61
2023/10/20 00:44:15;;;;;;;20.20;17.10;;;;;;;;;;5113811;28;20477;-61
2023/10/20 00:46:43;;;;;;;19.23;16.47;;;;;;;;;;5113788;28;20449;-61
2023/10/20 00:49:10;;;;;;;20.67;17.10;;;;;;;;;;5113622;28;20456;-61
2023/10/20 00:51:38;;;;;;;22.30;18.70;;;;;;;;;;5113918;28;20528;-61
2023/10/20 00:54:05;;;;;;;20.47;18.00;;;;;;;;;;5113762;28;20454;-61
2023/10/20 00:56:33;;;;;;;19.73;17.10;;;;;;;;;;5113686;28;20447;-61
2023/10/20 00:59:00;;;;;;;18.70;16.60;;;;;;;;;;5113609;28;20468;-61
2023/10/20 01:01:28;;;;;;;20.03;17.10;;;;;;;;;;5113549;28;21058;-61
2023/10/20 01:03:55;;;;;;;18.13;16.20;;;;;;;;;;5113711;28;20441;-61
2023/10/20 01:06:22;;;;;;;19.80;16.10;;;;;;;;;;5113658;28;20441;-62
2023/10/20 01:08:55;;;;;;;20.60;18.33;;;;;;;;;;5113600;28;20445;-61
2023/10/20 01:11:22;;;;;;;21.27;16.87;;;;;;;;;;5113562;28;20460;-61
2023/10/20 01:13:50;;;;;;;19.17;16.57;;;;;;;;;;5113366;28;20476;-61
2023/10/20 01:16:18;;;;;;;22.27;16.83;;;;;;;;;;5113311;28;20540;-62
2023/10/20 01:18:46;;;;;;;19.13;17.20;;;;;;;;;;5113550;28;20489;-61
2023/10/20 01:21:13;;;;;;;20.80;17.50;;;;;;;;;;5113515;28;20276;-61
2023/10/20 01:23:40;;;;;;;19.40;17.40;;;;;;;;;;5113263;28;20452;-61
2023/10/20 01:26:08;;;;;;;18.93;15.50;;;;;;;;;;5113266;28;20477;-61
2023/10/20 01:28:35;;;;;;;17.27;15.23;;;;;;;;;;5113341;28;20442;-61
2023/10/20 01:31:03;;;;;;;17.20;15.37;;;;;;;;;;5113185;28;20437;-61
2023/10/20 01:33:30;;;;;;;17.23;15.43;;;;;;;;;;5113352;28;20460;-61
2023/10/20 01:35:57;;;;;;;17.40;15.60;;;;;;;;;;5113191;28;20838;-61
2023/10/20 01:38:24;;;;;;;16.87;15.13;;;;;;;;;;5113367;28;20445;-61
2023/10/20 01:40:51;;;;;;;21.57;17.27;;;;;;;;;;5115069;28;20498;-61
2023/10/20 01:43:19;;;;;;;15.10;13.50;;;;;;;;;;5117468;28;20532;-61
2023/10/20 01:45:46;;;;;;;22.47;16.00;;;;;;;;;;5117354;28;20915;-61
2023/10/20 01:48:13;;;;;;;19.80;15.53;;;;;;;;;;5117267;28;20536;-61
2023/10/20 01:50:40;;;;;;;17.20;15.43;;;;;;;;;;5117224;28;20442;-61
2023/10/20 01:53:07;;;;;;;16.40;14.80;;;;;;;;;;5117158;28;20528;-61
2023/10/20 01:55:35;;;;;;;17.17;14.40;;;;;;;;;;5117001;28;20441;-61
2023/10/20 01:58:01;;;;;;;16.33;14.63;;;;;;;;;;5116930;28;20446;-61
2023/10/20 02:00:31;;;;;;;16.57;14.83;;;;;;;;;;5117146;28;20434;-62
2023/10/20 02:02:58;;;;;;;16.10;13.80;;;;;;;;;;5117041;28;20442;-61
2023/10/20 02:05:25;;;;;;;15.97;14.37;;;;;;;;;;5116657;28;20499;-62
2023/10/20 02:07:52;;;;;;;17.70;14.30;;;;;;;;;;5116893;28;20452;-61
2023/10/20 02:10:19;;;;;;;18.17;15.60;;;;;;;;;;5116733;28;20445;-62
2023/10/20 02:12:46;;;;;;;14.43;12.40;;;;;;;;;;5116950;28;20442;-61
2023/10/20 02:15:13;;;;;;;14.30;12.80;;;;;;;;;;5116840;28;20441;-61
2023/10/20 02:17:42;;;;;;;13.77;12.37;;;;;;;;;;5116801;28;20448;-61
2023/10/20 02:20:09;;;;;;;16.17;13.35;;;;;;;;;;5116729;28;20477;-61
2023/10/20 02:22:36;;;;;;;15.13;13.27;;;;;;;;;;5116611;28;20275;-61
2023/10/20 02:25:03;;;;;;;15.17;12.50;;;;;;;;;;5116375;28;20477;-61
2023/10/20 02:27:31;;;;;;;13.43;11.93;;;;;;;;;;5116687;28;20536;-61
2023/10/20 02:29:58;;;;;;;16.20;12.83;;;;;;;;;;5116563;28;20800;-61
2023/10/20 02:32:25;;;;;;;15.00;11.53;;;;;;;;;;5116485;28;20468;-61
2023/10/20 02:34:53;;;;;;;14.03;12.40;;;;;;;;;;5116230;28;20449;-61
2023/10/20 02:37:20;;;;;;;12.77;11.30;;;;;;;;;;5116386;28;20469;-62
2023/10/20 02:39:47;;;;;;;12.10;10.87;;;;;;;;;;5116214;28;20279;-61
2023/10/20 02:42:14;;;;;;;11.87;10.60;;;;;;;;;;5116349;28;20560;-62
2023/10/20 02:44:42;;;;;;;13.10;10.30;;;;;;;;;;5116119;28;20442;-61
2023/10/20 02:47:09;;;;;;;11.63;10.40;;;;;;;;;;5116162;28;20536;-61
2023/10/20 02:49:36;;;;;;;11.40;10.20;;;;;;;;;;5116047;28;20452;-62
2023/10/20 02:52:04;;;;;;;12.02;10.82;;;;;;;;;;5114500;28;20458;-62
2023/10/20 02:54:31;;;;;;;12.53;11.27;;;;;;;;;;5116154;28;20290;-61
2023/10/20 02:56:58;;;;;;;12.50;11.20;;;;;;;;;;5116088;28;20448;-61
2023/10/20 02:59:25;;;;;;;11.53;10.33;;;;;;;;;;5115941;28;20470;-61
2023/10/20 03:01:55;;;;;;;12.10;10.87;;;;;;;;;;5115803;28;20446;-61
2023/10/20 03:04:22;;;;;;;11.33;10.23;;;;;;;;;;5115751;28;20446;-61
2023/10/20 03:06:49;;;;;;;11.03;9.97;;;;;;;;;;5115791;28;20917;-62
2023/10/20 03:09:18;;;;;;;10.40;9.20;;;;;;;;;;5115853;28;20897;-61
2023/10/20 03:11:45;;;;;;;11.10;9.87;;;;;;;;;;5115681;28;20533;-61
2023/10/20 03:14:12;;;;;;;9.47;8.57;;;;;;;;;;5115576;28;20442;-61
2023/10/20 03:16:42;;;;;;;9.97;8.33;;;;;;;;;;5115710;28;20473;-62
2023/10/20 03:19:11;;;;;;;7.90;7.20;;;;;;;;;;5115637;28;20485;-61
2023/10/20 03:21:38;;;;;;;9.27;8.47;;;;;;;;;;5115343;28;20967;-61
2023/10/20 03:24:05;;;;;;;8.23;7.40;;;;;;;;;;5115485;28;20446;-61
2023/10/20 03:26:34;;;;;;;7.37;6.67;;;;;;;;;;5115315;28;20832;-61
2023/10/20 03:29:01;;;;;;;7.70;7.00;;;;;;;;;;5115247;28;20441;-61
2023/10/20 03:31:27;;;;;;;7.47;6.20;;;;;;;;;;5115162;28;20271;-62
2023/10/20 03:33:55;;;;;;;9.80;7.20;;;;;;;;;;5115003;28;20533;-62
2023/10/20 03:36:22;;;;;;;8.43;6.27;;;;;;;;;;5114863;28;20988;-61
2023/10/20 03:38:50;;;;;;;7.63;6.57;;;;;;;;;;5115175;28;20452;-62
2023/10/20 03:41:17;;;;;;;7.70;6.90;;;;;;;;;;5115092;28;20442;-61
2023/10/20 03:43:45;;;;;;;7.25;6.57;;;;;;;;;;5114983;28;20481;-62
2023/10/20 03:46:13;;;;;;;6.40;5.80;;;;;;;;;;5114749;28;20215;-61
2023/10/20 03:48:40;;;;;;;7.00;6.40;;;;;;;;;;5115349;28;20444;-62
2023/10/20 03:51:10;;;;;;;7.20;6.50;;;;;;;;;;5114935;28;20444;-62
2023/10/20 03:53:46;;;;;;;6.90;6.30;;;;;;;;;;5115074;28;20536;-61
2023/10/20 03:56:13;;;;;;;6.47;5.87;;;;;;;;;;5114739;28;20441;-61
2023/10/20 03:58:42;;;;;;;7.33;6.53;;;;;;;;;;5114582;28;20866;-62
2023/10/20 04:01:11;;;;;;;6.73;6.13;;;;;;;;;;5114569;28;20936;-61
2023/10/20 04:03:38;;;;;;;7.50;6.40;;;;;;;;;;5114314;28;20446;-62
2023/10/20 04:06:07;;;;;;;7.50;6.70;;;;;;;;;;5114467;28;20915;-61
2023/10/20 04:08:34;;;;;;;7.13;6.43;;;;;;;;;;5114436;28;20558;-62
2023/10/20 04:11:01;;;;;;;6.40;5.80;;;;;;;;;;5114464;28;20442;-62
2023/10/20 04:13:29;;;;;;;8.23;6.75;;;;;;;;;;5114371;28;20536;-61
2023/10/20 04:15:56;;;;;;;7.40;6.70;;;;;;;;;;5114484;28;20184;-62
2023/10/20 04:18:24;;;;;;;7.47;6.77;;;;;;;;;;5114358;28;20538;-61
2023/10/20 04:20:51;;;;;;;7.47;6.70;;;;;;;;;;5114303;28;20441;-61
2023/10/20 04:23:18;;;;;;;8.50;7.60;;;;;;;;;;5114195;28;20491;-61
2023/10/20 04:25:52;;;;;;;7.77;7.00;;;;;;;;;;5114057;28;20250;-62
2023/10/20 04:28:20;;;;;;;7.53;6.83;;;;;;;;;;5114402;28;20448;-62
2023/10/20 04:42:01;;;;;;;8.07;7.37;;;;;;;;;;5114316;28;20543;-61
2023/10/20 04:44:58;;;;;;;7.30;6.30;;;;;;;;;;5113804;28;20433;-61
2023/10/20 04:47:59;;;;;;;7.63;6.82;;;;;;;;;;5113904;28;20450;-61
2023/10/20 04:50:58;;;;;;;8.73;7.35;;;;;;;;;;5113520;28;20665;-60
2023/10/20 04:53:42;;;;;;;7.10;6.40;;;;;;;;;;5113770;28;20279;-60
2023/10/20 04:56:34;;;;;;;8.45;7.32;;;;;;;;;;5113760;28;20438;-61
2023/10/20 04:59:05;;;;;;;6.90;6.30;;;;;;;;;;5113714;28;20199;-62
2023/10/20 05:01:40;;;;;;;7.77;7.07;;;;;;;;;;5113722;28;20438;-60
2023/10/20 05:04:14;;;;;;;7.33;6.67;;;;;;;;;;5113642;28;20453;-61
2023/10/20 05:06:44;;;;;;;6.80;6.20;;;;;;;;;;5113772;28;20481;-60
2023/10/20 05:09:13;;;;;;;6.75;6.07;;;;;;;;;;5113575;28;20453;-60
2023/10/20 05:11:40;;;;;;;7.30;6.60;;;;;;;;;;5113356;28;20194;-61
2023/10/20 05:14:07;;;;;;;7.50;6.70;;;;;;;;;;5113304;28;20498;-61
2023/10/20 05:16:34;;;;;;;6.82;6.13;;;;;;;;;;5112876;28;20284;-61
2023/10/20 05:19:03;;;;;;;8.33;7.40;;;;;;;;;;5113376;28;20282;-61
2023/10/20 05:21:33;;;;;;;8.43;7.27;;;;;;;;;;5113319;28;20453;-61
2023/10/20 05:24:03;;;;;;;8.40;7.30;;;;;;;;;;5113571;28;20511;-61
2023/10/20 05:26:31;;;;;;;7.10;6.38;;;;;;;;;;5113136;28;20481;-61
2023/10/20 05:28:58;;;;;;;8.30;7.13;;;;;;;;;;5113370;28;20188;-61
2023/10/20 05:31:25;;;;;;;6.97;6.27;;;;;;;;;;5113576;28;20540;-61
2023/10/20 05:33:52;;;;;;;8.43;6.68;;;;;;;;;;5113266;28;20540;-61
2023/10/20 05:36:19;;;;;;;8.40;7.60;;;;;;;;;;5113031;28;20571;-61
2023/10/20 05:38:46;;;;;;;7.67;6.77;;;;;;;;;;5113019;28;20442;-61
2023/10/20 05:41:15;;;;;;;7.50;6.70;;;;;;;;;;5113334;28;20448;-61
2023/10/20 05:43:42;;;;;;;7.80;7.10;;;;;;;;;;5113137;28;20450;-61
2023/10/20 05:46:14;;;;;;;10.50;7.43;;;;;;;;;;5113006;28;20477;-61
2023/10/20 05:48:41;;;;;;;7.80;6.73;;;;;;;;;;5112981;28;20975;-60
2023/10/20 05:51:08;;;;;;;9.57;7.00;;;;;;;;;;5112887;28;20445;-60
2023/10/20 05:53:35;;;;;;;10.83;7.73;;;;;;;;;;5112940;28;20192;-60
2023/10/20 05:56:02;;;;;;;9.07;8.10;;;;;;;;;;5112963;28;20524;-60
2023/10/20 05:58:32;;;;;;;9.03;7.93;;;;;;;;;;5112986;28;20454;-61
2023/10/20 06:01:04;;;;;;;8.17;7.03;;;;;;;;;;5113005;28;20775;-61
2023/10/20 06:03:31;;;;;;;9.30;8.23;;;;;;;;;;5112920;28;20533;-61
2023/10/20 06:06:00;;;;;;;7.90;7.10;;;;;;;;;;5112690;28;20466;-61
2023/10/20 06:08:28;;;;;;;8.30;7.45;;;;;;;;;;5113042;28;20188;-61
2023/10/20 06:10:55;;;;;;;8.33;7.37;;;;;;;;;;5112968;28;20188;-61
2023/10/20 06:13:22;;;;;;;9.00;7.88;;;;;;;;;;5112713;28;20442;-61
2023/10/20 06:15:50;;;;;;;8.93;8.02;;;;;;;;;;5112816;28;20199;-61
2023/10/20 06:18:18;;;;;;;9.35;7.85;;;;;;;;;;5112797;28;20202;-61
2023/10/20 06:20:45;;;;;;;8.90;8.00;;;;;;;;;;5112994;28;20192;-61
2023/10/20 06:23:12;;;;;;;9.38;8.48;;;;;;;;;;5112895;28;20639;-61
2023/10/20 06:25:39;;;;;;;10.43;7.68;;;;;;;;;;5112742;28;20278;-61
2023/10/20 06:28:07;;;;;;;10.52;8.02;;;;;;;;;;5116238;28;20219;-61
2023/10/20 06:30:42;;;;;;;9.55;8.18;;;;;;;;;;5116477;28;20188;-61
2023/10/20 06:33:16;;;;;;;9.57;8.57;;;;;;;;;;5116515;28;20232;-61
2023/10/20 06:35:50;;;;;;;9.13;8.10;;;;;;;;;;5116282;28;20441;-61
2023/10/20 06:38:19;;;;;;;10.50;9.30;;;;;;;;;;5116080;28;20223;-61
2023/10/20 06:40:47;;;;;;;9.30;8.32;;;;;;;;;;5116153;28;20433;-61
2023/10/20 06:43:16;;;;;;;8.27;7.22;;;;;;;;;;5116051;28;20228;-61
2023/10/20 06:45:43;;;;;;;9.77;8.25;;;;;;;;;;5116074;28;20219;-61
2023/10/20 06:48:11;;;;;;;9.32;8.23;;;;;;;;;;5116107;28;20199;-61
2023/10/20 06:50:38;;;;;;;9.82;7.88;;;;;;;;;;5116073;28;20184;-61
2023/10/20 06:53:05;;;;;;;9.18;7.50;;;;;;;;;;5116006;28;20615;-61
2023/10/20 06:55:32;;;;;;;9.23;7.80;;;;;;;;;;5115828;28;20191;-61
2023/10/20 06:57:59;;;;;;;9.95;7.53;;;;;;;;;;5115669;28;20445;-61
2023/10/20 07:00:28;;;;;;;8.65;7.75;;;;;;;;;;5115641;28;20279;-62
2023/10/20 07:02:55;;;;;;;10.02;8.32;;;;;;;;;;5115695;28;20195;-60
2023/10/20 07:05:23;;;;;;;9.50;8.13;;;;;;;;;;5115632;28;20202;-65
2023/10/20 07:07:50;;;;;;;9.48;8.57;;;;;;;;;;5115527;28;20216;-60
2023/10/20 07:10:18;;;;;;;11.25;7.28;;;;;;;;;;5115420;28;20194;-63
2023/10/20 07:12:45;;;;;;;8.27;7.03;;;;;;;;;;5115563;28;20524;-59
2023/10/20 07:15:12;;;;;;;15.38;7.15;;;;;;;;;;5115577;28;20226;-57
2023/10/20 07:17:39;;;;;;;7.55;6.85;;;;;;;;;;5115429;28;20547;-56
2023/10/20 07:20:06;;;;;;;8.55;7.57;;;;;;;;;;5115520;28;20194;-56
2023/10/20 07:22:35;;;;;;;8.40;7.20;;;;;;;;;;5115212;28;20277;-57
2023/10/20 07:25:03;;;;;;;12.20;7.82;;;;;;;;;;5115082;28;20536;-57
2023/10/20 07:27:31;;;;;;;7.63;6.70;;;;;;;;;;5115373;28;20230;-57
2023/10/20 07:29:58;;;;;;;7.72;7.00;;;;;;;;;;5115290;28;20279;-57
2023/10/20 07:32:25;;;;;;;8.40;7.57;;;;;;;;;;5114857;28;20188;-59
2023/10/20 07:34:52;;;;;;;7.70;6.78;;;;;;;;;;5114977;28;20514;-59
2023/10/20 07:37:19;;;;;;;9.63;6.63;;;;;;;;;;5114448;28;20224;-61
2023/10/20 07:39:47;;;;;;;7.15;6.45;;;;;;;;;;5114166;28;20562;-59
2023/10/20 07:42:18;;;;;;;7.00;6.35;;;;;;;;;;5114992;28;20682;-60
2023/10/20 07:44:45;;;;;;;8.65;6.97;;;;;;;;;;5114827;28;20549;-60
2023/10/20 07:47:11;;;;;;;7.32;6.63;;;;;;;;;;5114709;28;20219;-59
2023/10/20 07:49:39;;;;;;;7.45;6.60;;;;;;;;;;5114516;28;20203;-59
2023/10/20 07:52:05;;;;;;;10.10;6.67;;;;;;;;;;5114412;28;20192;-59
2023/10/20 07:54:33;;;;;;;6.53;5.87;;;;;;;;;;5114778;28;20529;-59
2023/10/20 07:57:01;;;;;;;8.90;6.75;;;;;;;;;;5114845;28;20441;-60
2023/10/20 07:59:28;;;;;;;7.50;6.38;;;;;;;;;;5114500;28;20710;-60
2023/10/20 08:01:55;;;;;;;10.10;6.35;;;;;;;;;;5114448;28;20223;-59
2023/10/20 08:04:22;;;;;;;7.60;6.85;;;;;;;;;;5114344;28;20192;-59
2023/10/20 08:06:49;;;;;;;7.50;6.80;;;;;;;;;;5114172;28;20556;-59
2023/10/20 08:09:17;;;;;;;12.73;7.03;;;;;;;;;;5114445;28;20441;-59
2023/10/20 08:11:45;;;;;;;8.93;7.90;;;;;;;;;;5114117;28;20279;-59
2023/10/20 08:14:13;;;;;;;7.35;6.65;;;;;;;;;;5114244;28;20450;-59
2023/10/20 08:16:40;;;;;;;8.07;7.22;;;;;;;;;;5114211;28;20282;-60
2023/10/20 08:19:07;;;;;;;8.25;6.65;;;;;;;;;;5113869;28;20279;-61
2023/10/20 08:21:35;;;;;;;9.35;7.40;;;;;;;;;;5114260;28;20187;-60
2023/10/20 08:24:03;;;;;;;8.13;6.57;;;;;;;;;;5114199;28;20275;-59
2023/10/20 08:26:31;;;;;;;7.20;6.53;;;;;;;;;;5114203;28;20307;-59
2023/10/20 08:28:58;;;;;;;9.15;6.72;;;;;;;;;;5113910;28;20188;-59
2023/10/20 08:31:30;;;;;;;8.73;7.17;;;;;;;;;;5113929;28;20216;-59
2023/10/20 08:33:57;;;;;;;8.13;7.28;;;;;;;;;;5113885;28;20465;-57
2023/10/20 08:36:24;;;;;;;11.77;9.00;;;;;;;;;;5113720;28;20311;-62
2023/10/20 08:38:52;;;;;;;9.33;6.93;;;;;;;;;;5113792;28;20533;-59
2023/10/20 08:41:21;;;;;;;8.23;7.43;;;;;;;;;;5113715;28;20449;-59
2023/10/20 08:43:48;;;;;;;11.05;8.15;;;;;;;;;;5113590;28;20226;-63
2023/10/20 08:46:16;;;;;;;8.40;7.47;;;;;;;;;;5113355;28;20191;-61
2023/10/20 08:48:45;;;;;;;9.77;7.25;;;;;;;;;;5113533;28;20199;-59
2023/10/20 08:51:14;;;;;;;9.48;8.45;;;;;;;;;;5113602;28;20286;-59
2023/10/20 08:53:42;;;;;;;9.27;7.30;;;;;;;;;;5113523;28;20327;-56
2023/10/20 08:56:10;;;;;;;8.20;6.60;;;;;;;;;;5113399;28;20446;-52
2023/10/20 08:58:37;;;;;;;8.93;7.80;;;;;;;;;;5113283;28;20187;-59
2023/10/20 09:01:05;;;;;;;9.40;7.95;;;;;;;;;;5113612;28;20514;-60
2023/10/20 09:03:39;;;;;;;9.15;7.80;;;;;;;;;;5113690;28;20202;-58
2023/10/20 09:06:09;;;;;;;11.88;8.00;;;;;;;;;;5113440;28;20283;-61
2023/10/20 09:08:36;;;;;;;8.70;7.60;;;;;;;;;;5113194;28;20220;-62
2023/10/20 09:11:03;;;;;;;12.48;7.25;;;;;;;;;;5113047;28;20554;-59
2023/10/20 09:13:34;;;;;;;8.68;7.43;;;;;;;;;;5113525;28;20249;-60
2023/10/20 09:16:02;;;;;;;9.93;7.45;;;;;;;;;;5113403;28;20555;-59
2023/10/20 09:18:29;;;;;;;8.40;7.00;;;;;;;;;;5113444;28;20188;-56
2023/10/20 09:21:04;;;;;;;8.15;6.40;;;;;;;;;;5112996;28;20837;-61
2023/10/20 09:23:32;;;;;;;8.83;7.07;;;;;;;;;;5113255;28;20621;-62
2023/10/20 09:25:59;;;;;;;9.10;6.95;;;;;;;;;;5112838;28;20464;-58
2023/10/20 09:28:27;;;;;;;8.93;7.00;;;;;;;;;;5113167;28;20570;-68
2023/10/20 09:30:54;;;;;;;10.70;6.97;;;;;;;;;;5113139;28;20188;-60
2023/10/20 09:33:23;;;;;;;10.32;7.03;;;;;;;;;;5113108;28;20507;-59
2023/10/20 09:35:52;;;;;;;9.97;7.37;;;;;;;;;;5113096;28;20555;-58
2023/10/20 09:38:21;;;;;;;8.43;6.88;;;;;;;;;;5112882;28;20456;-59
2023/10/20 09:40:52;;;;;;;8.00;7.30;;;;;;;;;;5113161;28;20188;-59
2023/10/20 09:43:22;;;;;;;7.15;6.45;;;;;;;;;;5113175;28;20937;-59
2023/10/20 09:45:53;;;;;;;7.00;6.40;;;;;;;;;;5113137;28;20551;-59
2023/10/20 09:48:21;;;;;;;6.32;5.72;;;;;;;;;;5113027;28;20504;-59
2023/10/20 09:50:49;;;;;;;6.55;5.90;;;;;;;;;;5112868;28;20555;-59
2023/10/20 09:53:16;;;;;;;7.80;7.00;;;;;;;;;;5113129;28;20714;-60
2023/10/20 09:55:44;;;;;;;7.50;6.80;;;;;;;;;;5113127;28;20188;-59
2023/10/20 09:58:13;;;;;;;6.20;5.50;;;;;;;;;;5112983;28;20196;-59
2023/10/20 10:00:42;;;;;;;6.85;6.18;;;;;;;;;;5112752;28;20955;-59
2023/10/20 10:03:12;;;;;;;7.40;6.70;;;;;;;;;;5116733;28;20192;-60
2023/10/20 10:05:39;;;;;;;6.63;5.90;;;;;;;;;;5116996;28;20198;-59
2023/10/20 10:08:07;;;;;;;6.03;5.43;;;;;;;;;;5116829;28;20491;-60
2023/10/20 10:10:35;;;;;;;7.40;6.50;;;;;;;;;;5116796;28;20644;-59
2023/10/20 10:13:04;;;;;;;8.85;6.43;;;;;;;;;;5116596;28;20194;-60
2023/10/20 10:15:38;;;;;;;6.30;5.70;;;;;;;;;;5116670;28;20233;-59
2023/10/20 10:18:10;;;;;;;6.45;5.95;;;;;;;;;;5116849;28;20547;-59
2023/10/20 10:20:42;;;;;;;7.53;6.13;;;;;;;;;;5116670;28;20220;-59
2023/10/20 10:23:10;;;;;;;6.77;6.17;;;;;;;;;;5116663;28;20188;-59
2023/10/20 10:25:39;;;;;;;6.82;5.85;;;;;;;;;;5116484;28;20438;-59
2023/10/20 10:28:09;;;;;;;8.20;7.05;;;;;;;;;;5116355;28;20688;-59
2023/10/20 10:30:39;;;;;;;6.93;5.88;;;;;;;;;;5115976;28;20546;-59
2023/10/20 10:33:07;;;;;;;7.60;6.82;;;;;;;;;;5116223;28;20188;-59
2023/10/20 10:35:35;;;;;;;6.45;5.85;;;;;;;;;;5116302;28;20195;-59
2023/10/20 10:38:06;;;;;;;7.07;6.18;;;;;;;;;;5116093;28;20251;-59
2023/10/20 10:40:34;;;;;;;6.00;5.50;;;;;;;;;;5116271;28;20244;-59
2023/10/20 10:43:01;;;;;;;6.38;5.65;;;;;;;;;;5116028;28;20241;-59
2023/10/20 10:45:30;;;;;;;6.53;5.70;;;;;;;;;;5116209;28;20191;-59
2023/10/20 10:48:06;;;;;;;7.65;6.60;;;;;;;;;;5116087;28;20212;-59
2023/10/20 10:50:34;;;;;;;8.48;6.43;;;;;;;;;;5116085;28;20203;-59
2023/10/20 10:53:01;;;;;;;8.43;6.00;;;;;;;;;;5115970;28;20639;-59
2023/10/20 10:55:28;;;;;;;7.20;6.43;;;;;;;;;;5115938;28;20194;-59
2023/10/20 10:57:55;;;;;;;7.85;6.22;;;;;;;;;;5115896;28;20519;-59
2023/10/20 11:00:22;;;;;;;7.65;6.50;;;;;;;;;;5115904;28;20262;-59
2023/10/20 11:02:50;;;;;;;7.18;6.57;;;;;;;;;;5115856;28;20555;-59
2023/10/20 11:05:18;;;;;;;7.30;6.60;;;;;;;;;;5115607;28;20232;-60
2023/10/20 11:07:58;;;;;;;7.80;7.00;;;;;;;;;;5115337;28;20306;-60
2023/10/20 11:10:26;;;;;;;7.53;6.77;;;;;;;;;;5115735;28;20226;-59
2023/10/20 11:12:53;;;;;;;7.90;6.85;;;;;;;;;;5114509;28;20442;-59
2023/10/20 11:15:20;;;;;;;8.30;7.47;;;;;;;;;;5115666;28;20187;-59
2023/10/20 11:17:49;;;;;;;7.47;6.88;;;;;;;;;;5115483;28;20187;-59
2023/10/20 11:20:20;;;;;;;7.90;7.20;;;;;;;;;;5115388;28;20222;-59
2023/10/20 11:22:47;;;;;;;8.48;7.72;;;;;;;;;;5115575;28;20191;-59
2023/10/20 11:25:19;;;;;;;7.43;6.65;;;;;;;;;;5115557;28;20279;-59
2023/10/20 11:27:53;;;;;;;7.50;6.90;;;;;;;;;;5115345;28;20215;-60
2023/10/20 11:30:23;;;;;;;7.65;6.95;;;;;;;;;;5115093;28;20199;-59
2023/10/20 11:32:50;;;;;;;7.30;6.60;;;;;;;;;;5115053;28;20184;-58
2023/10/20 11:35:17;;;;;;;7.30;6.60;;;;;;;;;;5115311;28;20871;-59
2023/10/20 11:37:46;;;;;;;6.30;5.80;;;;;;;;;;5114854;28;20473;-60
2023/10/20 11:40:13;;;;;;;6.63;6.03;;;;;;;;;;5115174;28;20192;-59
2023/10/20 11:42:40;;;;;;;6.50;5.90;;;;;;;;;;5115058;28;20192;-59
2023/10/20 11:45:08;;;;;;;6.83;6.13;;;;;;;;;;5114831;28;20638;-59
2023/10/20 11:47:35;;;;;;;7.13;6.43;;;;;;;;;;5114667;28;20583;-58
2023/10/20 11:50:02;;;;;;;5.82;5.32;;;;;;;;;;5115022;28;20674;-59
2023/10/20 11:52:29;;;;;;;7.30;6.28;;;;;;;;;;5114694;28;20282;-59
2023/10/20 11:54:57;;;;;;;5.25;4.75;;;;;;;;;;5114853;28;20192;-59
2023/10/20 11:57:24;;;;;;;8.07;5.90;;;;;;;;;;5115240;28;20191;-59
2023/10/20 11:59:51;;;;;;;6.10;5.60;;;;;;;;;;5114616;28;20520;-58
2023/10/20 12:02:18;;;;;;;5.00;4.50;;;;;;;;;;5114974;28;20191;-58
2023/10/20 12:04:45;;;;;;;5.20;4.80;;;;;;;;;;5114688;28;20235;-59
2023/10/20 12:07:12;;;;;;;6.70;5.20;;;;;;;;;;5114614;28;20279;-59
2023/10/20 12:09:39;;;;;;;6.47;5.00;;;;;;;;;;5114415;28;20299;-57
2023/10/20 12:12:08;;;;;;;7.20;5.32;;;;;;;;;;5114365;28;20203;-57
2023/10/20 12:14:35;;;;;;;6.20;5.30;;;;;;;;;;5114190;28;20296;-57
2023/10/20 12:17:02;;;;;;;5.60;5.10;;;;;;;;;;5114768;28;20533;-59
2023/10/20 12:19:29;;;;;;;4.78;4.40;;;;;;;;;;5114302;28;20450;-58
2023/10/20 12:21:56;;;;;;;4.70;4.30;;;;;;;;;;5114321;28;20275;-60
2023/10/20 12:24:23;;;;;;;4.18;3.88;;;;;;;;;;5113916;28;20192;-59
2023/10/20 12:26:49;;;;;;;4.82;4.35;;;;;;;;;;5114131;28;20558;-59
2023/10/20 12:29:19;;;;;;;2.92;2.72;;;;;;;;;;5113889;28;20218;-58
2023/10/20 12:31:46;;;;;;;4.78;4.38;;;;;;;;;;5114068;28;20666;-57
2023/10/20 12:34:13;;;;;;;4.75;4.07;;;;;;;;;;5114050;28;20559;-59
2023/10/20 12:36:42;;;;;;;3.92;3.47;;;;;;;;;;5113882;28;20269;-58
2023/10/20 12:39:16;;;;;;;4.05;3.60;;;;;;;;;;5113827;28;20723;-59
2023/10/20 12:41:43;;;;;;;3.58;3.28;;;;;;;;;;5113801;28;20195;-59
2023/10/20 12:44:10;;;;;;;4.40;2.95;;;;;;;;;;5113935;28;20271;-58
2023/10/20 12:46:39;;;;;;;3.92;3.63;;;;;;;;;;5113915;28;20196;-59
2023/10/20 12:49:06;;;;;;;3.00;2.80;;;;;;;;;;5113647;28;20226;-59
2023/10/20 12:51:34;;;;;;;3.40;3.20;;;;;;;;;;5113714;28;20192;-57
2023/10/20 12:54:01;;;;;;;4.10;3.10;;;;;;;;;;5113504;28;20192;-59
2023/10/20 12:56:28;;;;;;;3.50;3.20;;;;;;;;;;5113542;28;20790;-59
2023/10/20 12:58:56;;;;;;;3.35;3.13;;;;;;;;;;5113733;28;20183;-57
2023/10/20 13:01:22;;;;;;;3.08;2.88;;;;;;;;;;5113493;28;20722;-59
2023/10/20 13:03:51;;;;;;;2.92;2.72;;;;;;;;;;5113510;28;20183;-59
2023/10/20 13:06:18;;;;;;;3.25;3.05;;;;;;;;;;5113447;28;20207;-59
2023/10/20 13:08:46;;;;;;;2.70;2.50;;;;;;;;;;5113275;28;20214;-59
2023/10/20 13:11:13;;;;;;;3.75;3.45;;;;;;;;;;5113548;28;20192;-59
2023/10/20 13:13:40;;;;;;;3.00;2.73;;;;;;;;;;5113544;28;20270;-59
2023/10/20 13:16:08;;;;;;;3.08;2.88;;;;;;;;;;5113453;28;20434;-59
2023/10/20 13:18:35;;;;;;;4.03;2.70;;;;;;;;;;5113342;28;20269;-59
2023/10/20 13:21:05;;;;;;;3.90;2.90;;;;;;;;;;5113324;28;20261;-58
2023/10/20 13:23:32;;;;;;;2.65;2.45;;;;;;;;;;5113176;28;20445;-59
2023/10/20 13:26:00;;;;;;;2.80;2.60;;;;;;;;;;5113397;28;20670;-59
2023/10/20 13:28:26;;;;;;;3.20;3.00;;;;;;;;;;5113282;28;20600;-58
2023/10/20 13:31:03;;;;;;;3.10;2.90;;;;;;;;;;5113231;28;20639;-59
2023/10/20 13:33:30;;;;;;;3.57;2.70;;;;;;;;;;5113172;28;20187;-58
2023/10/20 13:36:01;;;;;;;2.75;2.55;;;;;;;;;;5113377;28;20441;-60
2023/10/20 13:38:29;;;;;;;2.70;2.50;;;;;;;;;;5117638;28;20627;-59
2023/10/20 13:40:56;;;;;;;2.40;2.20;;;;;;;;;;5117759;28;20191;-58
2023/10/20 13:43:23;;;;;;;2.42;2.33;;;;;;;;;;5117488;28;20311;-58
2023/10/20 13:45:50;;;;;;;2.40;2.25;;;;;;;;;;5117258;28;20190;-59
2023/10/20 13:48:17;;;;;;;3.00;2.80;;;;;;;;;;5117070;28;20350;-59
2023/10/20 13:50:44;;;;;;;2.83;2.63;;;;;;;;;;5117403;28;20217;-59
2023/10/20 13:53:13;;;;;;;2.80;2.45;;;;;;;;;;5117002;28;20682;-58
2023/10/20 13:55:42;;;;;;;2.35;2.25;;;;;;;;;;5117295;28;20210;-58
2023/10/20 13:58:11;;;;;;;3.90;3.60;;;;;;;;;;5117023;28;20192;-59
2023/10/20 14:00:38;;;;;;;3.40;3.20;;;;;;;;;;5116891;28;20245;-60
2023/10/20 14:03:05;;;;;;;3.78;2.95;;;;;;;;;;5116858;28;20278;-59
2023/10/20 14:05:32;;;;;;;2.58;2.38;;;;;;;;;;5117005;28;20184;-59
2023/10/20 14:07:59;;;;;;;3.15;2.95;;;;;;;;;;5116826;28;20196;-59
2023/10/20 14:10:27;;;;;;;3.00;2.80;;;;;;;;;;5116921;28;20190;-59
2023/10/20 14:12:55;;;;;;;2.85;2.67;;;;;;;;;;5116834;28;20187;-60
2023/10/20 14:15:23;;;;;;;2.53;2.35;;;;;;;;;;5116600;28;20218;-60
2023/10/20 14:17:49;;;;;;;3.35;3.03;;;;;;;;;;5116794;28;20183;-60
2023/10/20 14:20:17;;;;;;;2.72;2.53;;;;;;;;;;5116809;28;20203;-60
2023/10/20 14:22:44;;;;;;;2.83;2.60;;;;;;;;;;5116788;28;20184;-60
2023/10/20 14:25:11;;;;;;;3.17;2.92;;;;;;;;;;5116864;28;20187;-60
2023/10/20 14:27:38;;;;;;;3.40;3.20;;;;;;;;;;5116411;28;20220;-60
2023/10/20 14:30:07;;;;;;;2.47;2.38;;;6.00;99.90;;;;;;5116323;28;20269;-59
2023/10/20 14:32:33;;;;;;;2.33;2.20;;;6.00;99.90;;;;;;5116306;28;20704;-60
2023/10/20 14:35:00;;;;;;;2.55;2.35;;;5.90;99.90;;;;;;5116548;28;20192;-60
2023/10/20 14:37:27;;;;;;;2.72;2.53;;;;;;;;;;5116319;28;20224;-59
2023/10/20 14:39:54;;;;;;;2.17;2.08;;;;;;;;;;5116376;28;20623;-60
2023/10/20 14:42:20;;;;;;;2.28;2.00;;;5.90;99.90;;;;;;5116226;28;20708;-60
2023/10/20 14:44:48;;;;;;;2.22;2.00;;;;;;;;;;5116112;28;20195;-59
2023/10/20 14:47:16;;;;;;;2.28;2.17;;;5.80;99.90;;;;;;5116035;28;20543;-60
2023/10/20 14:49:43;;;;;;;2.30;1.90;;;5.90;99.90;;;;;;5115881;28;20690;-60
2023/10/20 14:52:12;;;;;;;2.25;2.15;;;;;;;;;;5116104;28;20245;-60